Latest Coastal Weather Observations for Carnarvon

IDW60701

Issued at 1:13 am WST Wednesday 31 August 2016 (issued every 10 minutes, with the page automatically refreshed every 10 minutes)

About coastal observations | Map of coastal stations | Coastal observations for WA | Marine services | Other Formats
Station Details ID: 006011 Name: CARNARVON AIRPORT Lat: -24.89 Lon: 113.67 Height: 4.0 m
Data from the previous 72 hours. | See also: Recent months at Carnarvon
Date/Time
WST
Temp
°C
Wind Pressure Rain since
9am
mm
Weather Cloud Vis
km
Sea
Height
m
Swell
Dir  Spd
kts
Gust
kts
hPa Trend Height
m
Period
s
Dir
31/01:00am 17.4 SW 4 4 1015.2 - 0.0 - Partly cloudy 10 - - - -
31/12:30am 17.7 SW 5 6 1015.4 - 0.0 - Partly cloudy 10 - - - -
31/12:00am 17.8 SW 6 6 1015.5 - 0.0 - Partly cloudy 10 - - - -
 
Date/Time
WST
Temp
°C
Wind Pressure Rain since
9am
mm
Weather Cloud Vis
km
Sea
Height
m
Swell
Dir  Spd
kts
Gust
kts
hPa Trend Height
m
Period
s
Dir
30/11:30pm 18.5 SW 5 7 1015.4 - 0.0 - Cloudy 10 - - - -
30/11:00pm 18.7 SW 7 8 1015.6 - 0.0 - Cloudy 10 - - - -
30/10:30pm 18.5 SW 8 11 1015.8 - 0.0 - Cloudy 10 - - - -
30/10:00pm 18.0 SW 8 10 1015.9 - 0.0 - Partly cloudy 10 - - - -
30/09:30pm 17.8 SW 8 10 1015.9 - 0.0 - - 10 - - - -
30/09:00pm 18.1 SW 9 12 1015.9 - 0.0 - - 10 - - - -
30/08:30pm 18.0 SW 9 11 1015.7 - 0.0 - - 10 - - - -
30/08:00pm 18.0 SW 9 11 1015.6 - 0.0 - - 10 - - - -
30/07:30pm 18.3 SW 9 12 1015.4 - 0.0 - - 10 - - - -
30/07:00pm 18.2 SW 9 12 1015.1 - 0.0 - - 10 - - - -
30/06:30pm 18.3 SW 9 12 1014.9 - 0.0 - - 10 - - - -
30/06:00pm 19.2 SW 10 13 1014.8 - 0.0 - - 10 - - - -
30/05:30pm 20.1 WSW 12 15 1014.7 - 0.0 - - 10 - - - -
30/05:00pm 20.5 SW 12 15 1014.4 - 0.0 - - 10 - - - -
30/04:30pm 21.1 SW 13 18 1014.1 - 0.0 - - 10 - - - -
30/04:00pm 21.3 SW 14 18 1014.1 - 0.0 - - 10 - - - -
30/03:30pm 21.1 SW 15 19 1014.0 - 0.0 - - 10 - - - -
30/03:00pm 21.7 SW 13 17 1013.9 - 0.0 Fine Clear 30 - - - -
30/02:30pm 21.7 SW 14 18 1014.0 - 0.0 - - 10 - - - -
30/02:00pm 21.4 SW 13 17 1014.2 - 0.0 - - 10 - - - -
30/01:30pm 21.9 SW 13 17 1014.3 - 0.0 - - 10 - - - -
30/01:00pm 22.2 E 7 11 1014.6 - 0.0 - - 10 - - - -
30/12:30pm 22.5 E 7 10 1015.1 - 0.0 - - 10 - - - -
30/12:00pm 22.7 ENE 7 12 1015.6 - 0.0 - - 10 - - - -
30/11:30am 22.6 ENE 9 14 1015.7 - 0.0 - - 10 - - - -
30/11:00am 21.8 ENE 7 11 1016.3 - 0.0 - - 10 - - - -
30/10:30am 21.0 ESE 6 13 1016.9 - 0.0 - - 10 - - - -
30/10:00am 21.1 ENE 9 13 1017.2 - 0.0 - - 10 - - - -
30/09:30am 19.7 E 9 11 1017.2 - 0.0 - - 10 - - - -
30/09:00am 18.3 E 10 13 1017.2 - 0.0 Fine Clear 27 - - - -
30/08:30am 16.6 E 8 11 1017.0 - 0.0 - - 10 - - - -
30/08:00am 14.8 E 7 10 1017.1 - 0.0 - - 10 - - - -
30/07:30am 12.9 E 5 6 1016.9 - 0.0 - - 10 - - - -
30/07:00am 10.5 ESE 6 6 1016.6 - 0.0 - - 10 - - - -
30/06:30am 10.6 SE 6 7 1016.3 - 0.0 - - 10 - - - -
30/06:00am 10.5 ESE 5 6 1016.1 - 0.0 - - 10 - - - -
30/05:30am 11.4 SE 5 6 1015.9 - 0.0 - - 10 - - - -
30/05:00am 12.0 SE 7 8 1015.6 - 0.0 - - 10 - - - -
30/04:30am 12.7 SE 7 9 1015.6 - 0.0 - - 10 - - - -
30/04:00am 12.3 SE 7 8 1015.4 - 0.0 - - 10 - - - -
30/03:30am 12.6 S 5 6 1015.4 - 0.0 - - 10 - - - -
30/03:00am 12.6 SSE 2 6 1015.6 - 0.0 - - 10 - - - -
30/02:30am 12.5 SSE 5 6 1015.9 - 0.0 - - 10 - - - -
30/02:00am 13.0 SSE 3 4 1016.2 - 0.0 - - 10 - - - -
30/01:30am 13.3 SSE 5 7 1016.2 - 0.0 - - 10 - - - -
30/01:00am 14.6 S 6 8 1016.4 - 0.0 - - 10 - - - -
30/12:30am 15.3 S 7 9 1016.5 - 0.0 - - 10 - - - -
30/12:00am 15.8 S 9 11 1016.6 - 0.0 - - 10 - - - -
 
Date/Time
WST
Temp
°C
Wind Pressure Rain since
9am
mm
Weather Cloud Vis
km
Sea
Height
m
Swell
Dir  Spd
kts
Gust
kts
hPa Trend Height
m
Period
s
Dir
29/11:30pm 16.0 S 9 11 1016.6 - 0.0 - - 10 - - - -
29/11:00pm 16.3 S 10 13 1016.5 - 0.0 - - 10 - - - -
29/10:30pm 17.3 S 12 15 1016.6 - 0.0 - - 10 - - - -
29/10:00pm 17.5 S 12 15 1016.7 - 0.0 - - 10 - - - -
29/09:30pm 17.5 S 11 14 1016.4 - 0.0 - - 10 - - - -
29/09:00pm 17.3 SSW 10 12 1016.1 - 0.0 - - 10 - - - -
29/08:30pm 17.3 SSW 11 14 1016.0 - 0.0 - - 10 - - - -
29/08:00pm 17.4 SSW 11 14 1015.8 - 0.0 - - 10 - - - -
29/07:30pm 17.3 SSW 11 15 1015.5 - 0.0 - - 10 - - - -
29/07:00pm 17.4 SSW 12 16 1015.2 - 0.0 - - 10 - - - -
29/06:30pm 17.3 SSW 12 15 1014.9 - 0.0 - - 10 - - - -
29/06:00pm 17.7 SSW 13 18 1014.8 - 0.0 - - 10 - - - -
29/05:30pm 18.3 S 15 19 1014.6 - 0.0 - - 10 - - - -
29/05:00pm 18.8 SSW 15 19 1014.5 - 0.0 - - 10 - - - -
29/04:30pm 19.3 SSW 16 21 1014.5 - 0.0 - - 10 - - - -
29/04:00pm 20.7 S 15 19 1014.5 - 0.0 - - 10 - - - -
29/03:30pm 20.7 S 17 21 1014.5 - 0.0 - - 10 - - - -
29/03:00pm 21.1 S 16 23 1014.5 - 0.0 Fine Mostly clear 30 - - - -
29/02:30pm 21.2 S 17 22 1014.5 - 0.0 - - 10 - - - -
29/02:00pm 20.4 S 17 22 1014.6 - 0.0 - - 10 - - - -
29/01:30pm 21.0 S 17 22 1015.0 - 0.0 - - 10 - - - -
29/01:00pm 20.3 SSW 14 19 1015.4 - 0.0 - - 10 - - - -
29/12:30pm 19.0 SSW 14 18 1015.9 - 0.0 - Partly cloudy 10 - - - -
29/12:00pm 19.5 SSW 14 19 1016.3 - 0.0 - Mostly clear 10 - - - -
29/11:30am 19.4 S 12 18 1016.6 - 0.0 - Partly cloudy 10 - - - -
29/11:00am 18.8 SSW 12 15 1017.2 - 0.0 - Partly cloudy 10 - - - -
29/10:30am 18.5 SSE 10 13 1017.4 - 0.0 - - 10 - - - -
29/10:00am 18.3 SE 8 12 1017.4 - 0.0 - Partly cloudy 10 - - - -
29/09:30am 16.7 SE 10 13 1017.5 - 0.0 - Cloudy 10 - - - -
29/09:00am 16.6 ESE 7 10 1017.6 - 1.2 Fine Mostly clear 27 - - - -
29/08:30am 15.5 ESE 7 10 1017.1 - 1.2 - - 10 - - - -
29/08:00am 14.1 ESE 7 9 1016.6 - 1.2 - - 10 - - - -
29/07:30am 12.5 ESE 6 7 1016.5 - 1.2 - - 10 - - - -
29/07:00am 11.4 SE 6 7 1016.3 - 1.2 - - 10 - - - -
29/06:30am 11.3 ESE 6 7 1016.0 - 1.2 - Partly cloudy 10 - - - -
29/06:00am 11.2 SE 7 8 1015.7 - 1.2 - Mostly cloudy 10 - - - -
29/05:30am 11.0 SE 5 6 1015.3 - 1.2 - Partly cloudy 10 - - - -
29/05:00am 11.3 SE 6 7 1015.0 - 1.2 - - 10 - - - -
29/04:30am 12.1 ESE 6 6 1014.8 - 1.2 - - 10 - - - -
29/04:00am 12.7 SE 5 7 1014.7 - 1.2 - Partly cloudy 10 - - - -
29/03:30am 13.1 ESE 8 9 1014.7 - 1.0 - Partly cloudy 10 - - - -
29/03:00am 13.1 SE 6 7 1014.8 - 1.0 - Mostly clear 10 - - - -
29/02:30am 13.8 SE 6 7 1015.0 - 1.0 - Partly cloudy 10 - - - -
29/02:00am 14.7 SSE 4 5 1015.3 - 1.0 - Partly cloudy 10 - - - -
29/01:30am 15.1 S 6 7 1015.5 - 1.0 - Partly cloudy 10 - - - -
29/01:12am 15.3 S 7 9 1015.4 - 0.6 - Partly cloudy 10 - - - -
29/01:00am 15.2 S 8 13 1015.4 - 0.6 - Partly cloudy 7 - - - -
29/12:55am 15.1 S 11 17 1015.5 - 0.6 - Partly cloudy 8 - - - -
29/12:30am 15.2 SSE 5 6 1015.6 - 0.0 - Cloudy 10 - - - -
29/12:00am 15.2 SSE 6 7 1015.7 - 0.0 - Cloudy 10 - - - -
 
Date/Time
WST
Temp
°C
Wind Pressure Rain since
9am
mm
Weather Cloud Vis
km
Sea
Height
m
Swell
Dir  Spd
kts
Gust
kts
hPa Trend Height
m
Period
s
Dir
28/11:30pm 15.5 SSE 7 9 1015.7 - 0.0 - Partly cloudy 10 - - - -
28/11:00pm 15.3 SSE 5 7 1015.9 - 0.0 - Cloudy 10 - - - -
28/10:30pm 15.4 SSE 6 7 1016.1 - 0.0 - Cloudy 10 - - - -
28/10:00pm 14.9 S 5 7 1016.0 - 0.0 - Partly cloudy 10 - - - -
28/09:30pm 15.6 SSE 4 5 1015.9 - 0.0 - Cloudy 10 - - - -
28/09:00pm 15.9 S 4 5 1015.7 - 0.0 - Mostly cloudy 10 - - - -
28/08:30pm 15.6 SE 5 6 1015.5 - 0.0 - Partly cloudy 10 - - - -
28/08:00pm 16.3 SSE 5 7 1015.4 - 0.0 - Cloudy 10 - - - -
28/07:30pm 16.4 SSE 5 6 1015.1 - 0.0 - Cloudy 10 - - - -
28/07:00pm 16.7 S 8 11 1014.8 - 0.0 - Partly cloudy 10 - - - -
28/06:30pm 16.5 S 9 11 1014.5 - 0.0 - Partly cloudy 10 - - - -
28/06:00pm 16.4 S 8 11 1014.5 - 0.0 - Mostly cloudy 10 - - - -
28/05:30pm 17.8 SW 13 16 1014.5 - 0.0 - Partly cloudy 10 - - - -
28/05:00pm 18.3 WSW 10 15 1014.3 - 0.0 - Partly cloudy 10 - - - -
28/04:30pm 17.9 WSW 10 13 1014.1 - 0.0 - Partly cloudy 10 - - - -
28/04:00pm 18.3 SW 13 17 1013.9 - 0.0 - Cloudy 10 - - - -
28/03:30pm 18.5 SW 13 17 1014.0 - 0.0 - Partly cloudy 10 - - - -
28/03:00pm 19.5 SW 11 14 1013.8 - 0.0 Fine Mostly cloudy 27 - - - -
28/02:30pm 19.6 SSW 9 13 1014.0 - 0.0 - Cloudy 10 - - - -
28/02:00pm 19.8 SSW 8 11 1014.3 - 0.0 - Partly cloudy 10 - - - -
28/01:30pm 19.6 SW 9 12 1014.6 - 0.0 - Partly cloudy 10 - - - -
28/01:00pm 19.7 SSW 10 13 1015.1 - 0.0 - Cloudy 10 - - - -
28/12:30pm 19.6 SSW 9 11 1015.3 - 0.0 - Cloudy 10 - - - -
28/12:00pm 19.6 SSW 9 11 1015.5 - 0.0 - Partly cloudy 10 - - - -
28/11:30am 19.1 SSW 8 11 1015.9 - 0.0 - Partly cloudy 10 - - - -
28/11:00am 18.8 SSW 7 10 1015.9 - 0.0 - - 10 - - - -
28/10:30am 18.7 S 6 9 1016.0 - 0.0 - Partly cloudy 10 - - - -
28/10:00am 17.3 ESE 7 9 1016.1 - 0.0 - Cloudy 10 - - - -
28/09:30am 16.7 ESE 7 9 1016.2 - 0.0 - Partly cloudy 10 - - - -
28/09:00am 16.4 SE 6 9 1016.3 - 4.2 Fine Cloudy 27 - - - -
28/08:30am 15.9 ESE 6 7 1016.0 - 4.2 - Cloudy 10 - - - -
28/08:00am 15.3 SSE 6 8 1015.7 - 4.2 - Cloudy 10 - - - -
28/07:30am 15.2 SSE 10 13 1015.3 - 4.2 - Cloudy 10 - - - -
28/07:00am 13.8 SE 6 7 1014.8 - 4.2 - Cloudy 10 - - - -
28/06:30am 13.8 SE 7 9 1014.4 - 4.2 - Cloudy 10 - - - -
28/06:00am 13.8 SSE 7 11 1014.2 - 4.2 - Mostly cloudy 10 - - - -
28/05:30am 12.9 SE 4 8 1014.0 - 4.2 - Partly cloudy 10 - - - -
28/05:00am 12.9 SE 5 6 1013.7 - 3.8 - Partly cloudy 10 - - - -
28/04:30am 13.4 ESE 6 7 1013.6 - 3.8 - Partly cloudy 10 - - - -
28/04:00am 13.8 SE 6 7 1013.6 - 3.8 - Partly cloudy 10 - - - -
28/03:30am 14.7 SSE 7 11 1013.6 - 3.8 - Partly cloudy 10 - - - -
28/03:00am 15.1 S 10 13 1013.7 - 3.8 - Mostly cloudy 10 - - - -
28/02:30am 14.8 SSE 5 7 1013.6 - 3.8 - Partly cloudy 10 - - - -
28/02:15am 15.0 S 9 11 1013.5 - 3.8 - Partly cloudy 10 - - - -
28/02:00am 15.1 SSW 10 14 1013.8 - 3.8 - Partly cloudy 7 - - - -
28/01:54am 15.5 SSW 9 12 1013.9 - 3.6 - Partly cloudy 8 - - - -
28/01:30am 16.0 SSW 10 14 1013.7 - 3.6 - Partly cloudy 10 - - - -

Other Formats:

Comma delimited format used in spreadsheet applications
http://www.bom.gov.au/fwo/IDW60701/IDW60701.94300.axf

JavaScript Object Notation format (JSON) in row-major order
http://www.bom.gov.au/fwo/IDW60701/IDW60701.94300.json